sensor_id;sensor_type;location;lat;lon;timestamp;pressure;altitude;pressure_sealevel;temperature;humidity
68197;BME280;55019;49.382;11.358;2024-02-23T00:00:06;94443.53;;;7.37;100.00
68197;BME280;55019;49.382;11.358;2024-02-23T00:02:33;94451.84;;;7.32;100.00
68197;BME280;55019;49.382;11.358;2024-02-23T00:05:01;94454.59;;;7.31;100.00
68197;BME280;55019;49.382;11.358;2024-02-23T00:07:27;94451.63;;;7.34;100.00
68197;BME280;55019;49.382;11.358;2024-02-23T00:09:53;94443.53;;;7.30;100.00
68197;BME280;55019;49.382;11.358;2024-02-23T00:12:18;94460.91;;;7.35;100.00
68197;BME280;55019;49.382;11.358;2024-02-23T00:14:44;94451.81;;;7.26;100.00
68197;BME280;55019;49.382;11.358;2024-02-23T00:17:10;94469.63;;;7.27;100.00
68197;BME280;55019;49.382;11.358;2024-02-23T00:19:37;94458.91;;;7.24;100.00
68197;BME280;55019;49.382;11.358;2024-02-23T00:22:03;94465.25;;;7.28;100.00
68197;BME280;55019;49.382;11.358;2024-02-23T00:24:29;94468.41;;;7.23;100.00
68197;BME280;55019;49.382;11.358;2024-02-23T00:26:54;94466.25;;;7.27;100.00
68197;BME280;55019;49.382;11.358;2024-02-23T00:29:20;94484.22;;;7.20;100.00
68197;BME280;55019;49.382;11.358;2024-02-23T00:31:47;94489.50;;;7.12;100.00
68197;BME280;55019;49.382;11.358;2024-02-23T00:34:13;94478.63;;;7.10;100.00
68197;BME280;55019;49.382;11.358;2024-02-23T00:36:40;94485.34;;;7.05;100.00
68197;BME280;55019;49.382;11.358;2024-02-23T00:39:07;94503.09;;;7.00;100.00
68197;BME280;55019;49.382;11.358;2024-02-23T00:41:36;94490.81;;;6.89;100.00
68197;BME280;55019;49.382;11.358;2024-02-23T00:44:02;94511.34;;;6.89;100.00
68197;BME280;55019;49.382;11.358;2024-02-23T00:46:29;94523.94;;;6.84;100.00
68197;BME280;55019;49.382;11.358;2024-02-23T00:48:54;94533.56;;;6.76;100.00
68197;BME280;55019;49.382;11.358;2024-02-23T00:51:20;94553.50;;;6.74;100.00
68197;BME280;55019;49.382;11.358;2024-02-23T00:53:46;94558.19;;;6.70;100.00
68197;BME280;55019;49.382;11.358;2024-02-23T00:56:12;94560.31;;;6.60;100.00
68197;BME280;55019;49.382;11.358;2024-02-23T00:58:41;94556.91;;;6.53;100.00
68197;BME280;55019;49.382;11.358;2024-02-23T01:01:06;94564.00;;;6.51;100.00
68197;BME280;55019;49.382;11.358;2024-02-23T01:03:32;94576.63;;;6.53;100.00
68197;BME280;55019;49.382;11.358;2024-02-23T01:05:59;94563.78;;;6.46;100.00
68197;BME280;55019;49.382;11.358;2024-02-23T01:08:25;94570.19;;;6.36;100.00
68197;BME280;55019;49.382;11.358;2024-02-23T01:10:51;94585.22;;;6.39;100.00
68197;BME280;55019;49.382;11.358;2024-02-23T01:13:17;94576.09;;;6.36;100.00
68197;BME280;55019;49.382;11.358;2024-02-23T01:15:42;94571.84;;;6.22;100.00
68197;BME280;55019;49.382;11.358;2024-02-23T01:18:08;94561.13;;;6.12;100.00
68197;BME280;55019;49.382;11.358;2024-02-23T01:20:34;94572.06;;;6.21;100.00
68197;BME280;55019;49.382;11.358;2024-02-23T01:23:00;94558.50;;;6.06;100.00
68197;BME280;55019;49.382;11.358;2024-02-23T01:25:26;94550.78;;;6.06;100.00
68197;BME280;55019;49.382;11.358;2024-02-23T01:27:52;94562.34;;;5.95;100.00
68197;BME280;55019;49.382;11.358;2024-02-23T01:30:17;94577.53;;;5.97;100.00
68197;BME280;55019;49.382;11.358;2024-02-23T01:32:45;94579.63;;;5.87;100.00
68197;BME280;55019;49.382;11.358;2024-02-23T01:35:11;94585.63;;;5.79;100.00
68197;BME280;55019;49.382;11.358;2024-02-23T01:37:37;94574.34;;;5.74;100.00
68197;BME280;55019;49.382;11.358;2024-02-23T01:40:03;94572.31;;;5.69;100.00
68197;BME280;55019;49.382;11.358;2024-02-23T01:42:33;94596.78;;;5.72;100.00
68197;BME280;55019;49.382;11.358;2024-02-23T01:44:59;94614.03;;;5.63;100.00
68197;BME280;55019;49.382;11.358;2024-02-23T01:47:25;94617.72;;;5.61;100.00
68197;BME280;55019;49.382;11.358;2024-02-23T01:49:53;94619.25;;;5.56;100.00
68197;BME280;55019;49.382;11.358;2024-02-23T01:52:20;94617.16;;;5.45;100.00
68197;BME280;55019;49.382;11.358;2024-02-23T01:54:46;94631.19;;;5.49;100.00
68197;BME280;55019;49.382;11.358;2024-02-23T01:57:13;94629.59;;;5.48;100.00
68197;BME280;55019;49.382;11.358;2024-02-23T01:59:39;94620.44;;;5.39;100.00
68197;BME280;55019;49.382;11.358;2024-02-23T02:02:05;94626.84;;;5.35;100.00
68197;BME280;55019;49.382;11.358;2024-02-23T02:04:31;94633.56;;;5.36;100.00
68197;BME280;55019;49.382;11.358;2024-02-23T02:07:00;94634.47;;;5.28;100.00
68197;BME280;55019;49.382;11.358;2024-02-23T02:09:26;94640.72;;;5.26;100.00
68197;BME280;55019;49.382;11.358;2024-02-23T02:11:52;94641.09;;;5.23;100.00
68197;BME280;55019;49.382;11.358;2024-02-23T02:14:19;94648.41;;;5.26;100.00
68197;BME280;55019;49.382;11.358;2024-02-23T02:16:44;94644.19;;;5.18;100.00
68197;BME280;55019;49.382;11.358;2024-02-23T02:19:11;94649.81;;;5.14;100.00
68197;BME280;55019;49.382;11.358;2024-02-23T02:21:37;94662.19;;;5.10;100.00
68197;BME280;55019;49.382;11.358;2024-02-23T02:24:04;94661.41;;;5.10;100.00
68197;BME280;55019;49.382;11.358;2024-02-23T02:26:31;94671.97;;;5.07;100.00
68197;BME280;55019;49.382;11.358;2024-02-23T02:28:56;94686.09;;;5.03;100.00
68197;BME280;55019;49.382;11.358;2024-02-23T02:31:22;94690.69;;;4.93;100.00
68197;BME280;55019;49.382;11.358;2024-02-23T02:33:48;94685.22;;;4.96;100.00
68197;BME280;55019;49.382;11.358;2024-02-23T02:36:14;94685.56;;;4.93;100.00
68197;BME280;55019;49.382;11.358;2024-02-23T02:38:39;94695.53;;;4.88;100.00
68197;BME280;55019;49.382;11.358;2024-02-23T02:41:05;94702.25;;;4.89;100.00
68197;BME280;55019;49.382;11.358;2024-02-23T02:43:32;94693.75;;;4.88;100.00
68197;BME280;55019;49.382;11.358;2024-02-23T02:45:58;94699.75;;;4.95;100.00
68197;BME280;55019;49.382;11.358;2024-02-23T02:48:24;94708.94;;;4.90;100.00
68197;BME280;55019;49.382;11.358;2024-02-23T02:50:50;94701.25;;;4.90;100.00
68197;BME280;55019;49.382;11.358;2024-02-23T02:53:17;94702.28;;;4.81;100.00
68197;BME280;55019;49.382;11.358;2024-02-23T02:55:44;94706.38;;;4.90;100.00
68197;BME280;55019;49.382;11.358;2024-02-23T02:58:12;94693.94;;;4.87;100.00
68197;BME280;55019;49.382;11.358;2024-02-23T03:00:39;94699.44;;;4.76;100.00
68197;BME280;55019;49.382;11.358;2024-02-23T03:03:05;94706.50;;;4.74;100.00
68197;BME280;55019;49.382;11.358;2024-02-23T03:05:30;94712.50;;;4.81;100.00
68197;BME280;55019;49.382;11.358;2024-02-23T03:07:56;94701.91;;;4.69;100.00
68197;BME280;55019;49.382;11.358;2024-02-23T03:10:22;94704.91;;;4.73;100.00
68197;BME280;55019;49.382;11.358;2024-02-23T03:12:48;94720.78;;;4.68;100.00
68197;BME280;55019;49.382;11.358;2024-02-23T03:15:13;94710.72;;;4.67;100.00
68197;BME280;55019;49.382;11.358;2024-02-23T03:17:39;94711.06;;;4.64;100.00
68197;BME280;55019;49.382;11.358;2024-02-23T03:20:05;94722.44;;;4.61;100.00
68197;BME280;55019;49.382;11.358;2024-02-23T03:22:37;94723.78;;;4.72;100.00
68197;BME280;55019;49.382;11.358;2024-02-23T03:25:04;94732.78;;;4.68;100.00
68197;BME280;55019;49.382;11.358;2024-02-23T03:27:34;94742.09;;;4.61;100.00
68197;BME280;55019;49.382;11.358;2024-02-23T03:30:04;94742.09;;;4.61;100.00
68197;BME280;55019;49.382;11.358;2024-02-23T03:32:31;94748.47;;;4.65;100.00
68197;BME280;55019;49.382;11.358;2024-02-23T03:35:06;94734.78;;;4.58;100.00
68197;BME280;55019;49.382;11.358;2024-02-23T03:37:33;94747.91;;;4.55;100.00
68197;BME280;55019;49.382;11.358;2024-02-23T03:39:59;94751.56;;;4.60;100.00
68197;BME280;55019;49.382;11.358;2024-02-23T03:42:26;94769.28;;;4.62;100.00
68197;BME280;55019;49.382;11.358;2024-02-23T03:44:52;94768.50;;;4.61;100.00
68197;BME280;55019;49.382;11.358;2024-02-23T03:47:18;94765.13;;;4.61;100.00
68197;BME280;55019;49.382;11.358;2024-02-23T03:49:44;94763.13;;;4.71;100.00
68197;BME280;55019;49.382;11.358;2024-02-23T03:52:10;94776.09;;;4.69;100.00
68197;BME280;55019;49.382;11.358;2024-02-23T03:54:36;94764.78;;;4.64;100.00
68197;BME280;55019;49.382;11.358;2024-02-23T03:57:01;94767.22;;;4.57;100.00
68197;BME280;55019;49.382;11.358;2024-02-23T03:59:28;94770.25;;;4.61;100.00
68197;BME280;55019;49.382;11.358;2024-02-23T04:01:54;94774.59;;;4.52;100.00
68197;BME280;55019;49.382;11.358;2024-02-23T04:04:20;94773.34;;;4.48;100.00
68197;BME280;55019;49.382;11.358;2024-02-23T04:06:46;94757.78;;;4.58;100.00
68197;BME280;55019;49.382;11.358;2024-02-23T04:09:11;94764.50;;;4.59;100.00
68197;BME280;55019;49.382;11.358;2024-02-23T04:11:38;94765.69;;;4.48;100.00
68197;BME280;55019;49.382;11.358;2024-02-23T04:14:03;94762.22;;;4.41;100.00
68197;BME280;55019;49.382;11.358;2024-02-23T04:16:30;94762.69;;;4.45;100.00
68197;BME280;55019;49.382;11.358;2024-02-23T04:18:56;94763.66;;;4.44;100.00
68197;BME280;55019;49.382;11.358;2024-02-23T04:21:22;94769.25;;;4.39;100.00
68197;BME280;55019;49.382;11.358;2024-02-23T04:23:48;94772.28;;;4.43;100.00
68197;BME280;55019;49.382;11.358;2024-02-23T04:26:14;94762.88;;;4.35;100.00
68197;BME280;55019;49.382;11.358;2024-02-23T04:28:42;94768.13;;;4.42;100.00
68197;BME280;55019;49.382;11.358;2024-02-23T04:31:09;94765.16;;;4.30;100.00
68197;BME280;55019;49.382;11.358;2024-02-23T04:33:36;94767.88;;;4.29;100.00
68197;BME280;55019;49.382;11.358;2024-02-23T04:36:02;94773.16;;;4.27;100.00
68197;BME280;55019;49.382;11.358;2024-02-23T04:38:29;94783.53;;;4.26;100.00
68197;BME280;55019;49.382;11.358;2024-02-23T04:40:55;94783.22;;;4.29;100.00
68197;BME280;55019;49.382;11.358;2024-02-23T04:43:22;94788.84;;;4.24;100.00
68197;BME280;55019;49.382;11.358;2024-02-23T04:45:48;94781.84;;;4.19;100.00
68197;BME280;55019;49.382;11.358;2024-02-23T04:48:14;94777.66;;;4.25;100.00
68197;BME280;55019;49.382;11.358;2024-02-23T04:50:40;94793.47;;;4.21;100.00
68197;BME280;55019;49.382;11.358;2024-02-23T04:53:05;94786.44;;;4.23;100.00
68197;BME280;55019;49.382;11.358;2024-02-23T04:55:31;94796.31;;;4.34;100.00
68197;BME280;55019;49.382;11.358;2024-02-23T04:57:57;94794.41;;;4.28;100.00
68197;BME280;55019;49.382;11.358;2024-02-23T05:00:22;94795.84;;;4.30;100.00
68197;BME280;55019;49.382;11.358;2024-02-23T05:02:48;94803.22;;;4.25;100.00
68197;BME280;55019;49.382;11.358;2024-02-23T05:05:14;94803.38;;;4.24;100.00
68197;BME280;55019;49.382;11.358;2024-02-23T05:07:40;94807.84;;;4.22;100.00
68197;BME280;55019;49.382;11.358;2024-02-23T05:10:06;94816.47;;;4.21;100.00
68197;BME280;55019;49.382;11.358;2024-02-23T05:12:32;94813.31;;;4.19;100.00
68197;BME280;55019;49.382;11.358;2024-02-23T05:14:58;94798.78;;;4.20;100.00
68197;BME280;55019;49.382;11.358;2024-02-23T05:17:24;94799.44;;;4.14;100.00
68197;BME280;55019;49.382;11.358;2024-02-23T05:19:49;94793.53;;;4.13;100.00
68197;BME280;55019;49.382;11.358;2024-02-23T05:22:15;94781.41;;;4.07;100.00
68197;BME280;55019;49.382;11.358;2024-02-23T05:24:41;94791.78;;;4.14;100.00
68197;BME280;55019;49.382;11.358;2024-02-23T05:27:06;94788.06;;;4.16;100.00
68197;BME280;55019;49.382;11.358;2024-02-23T05:29:32;94777.84;;;4.16;100.00
68197;BME280;55019;49.382;11.358;2024-02-23T05:31:58;94779.44;;;4.17;100.00
68197;BME280;55019;49.382;11.358;2024-02-23T05:34:24;94785.91;;;4.05;100.00
68197;BME280;55019;49.382;11.358;2024-02-23T05:36:50;94777.91;;;4.08;100.00
68197;BME280;55019;49.382;11.358;2024-02-23T05:39:16;94780.75;;;4.13;100.00
68197;BME280;55019;49.382;11.358;2024-02-23T05:41:43;94779.53;;;4.01;100.00
68197;BME280;55019;49.382;11.358;2024-02-23T05:44:09;94783.03;;;4.00;100.00
68197;BME280;55019;49.382;11.358;2024-02-23T05:46:36;94789.44;;;3.96;100.00
68197;BME280;55019;49.382;11.358;2024-02-23T05:49:03;94787.84;;;3.95;100.00
68197;BME280;55019;49.382;11.358;2024-02-23T05:51:30;94769.06;;;3.88;100.00
68197;BME280;55019;49.382;11.358;2024-02-23T05:53:56;94781.53;;;3.83;100.00
68197;BME280;55019;49.382;11.358;2024-02-23T05:56:23;94791.09;;;3.89;100.00
68197;BME280;55019;49.382;11.358;2024-02-23T05:58:51;94797.50;;;3.77;100.00
68197;BME280;55019;49.382;11.358;2024-02-23T06:01:20;94805.44;;;3.82;100.00
68197;BME280;55019;49.382;11.358;2024-02-23T06:03:46;94798.72;;;3.97;100.00
68197;BME280;55019;49.382;11.358;2024-02-23T06:06:12;94811.19;;;3.92;100.00
68197;BME280;55019;49.382;11.358;2024-02-23T06:08:38;94820.16;;;3.88;100.00
68197;BME280;55019;49.382;11.358;2024-02-23T06:11:03;94815.81;;;3.89;100.00
68197;BME280;55019;49.382;11.358;2024-02-23T06:13:32;94835.81;;;3.85;100.00
68197;BME280;55019;49.382;11.358;2024-02-23T06:15:59;94838.66;;;3.82;100.00
68197;BME280;55019;49.382;11.358;2024-02-23T06:18:25;94827.34;;;3.77;100.00
68197;BME280;55019;49.382;11.358;2024-02-23T06:20:50;94832.91;;;3.80;100.00
68197;BME280;55019;49.382;11.358;2024-02-23T06:23:17;94845.38;;;3.75;100.00
68197;BME280;55019;49.382;11.358;2024-02-23T06:25:43;94848.25;;;3.72;100.00
68197;BME280;55019;49.382;11.358;2024-02-23T06:28:12;94874.00;;;3.71;100.00
68197;BME280;55019;49.382;11.358;2024-02-23T06:30:38;94874.00;;;3.71;100.00
68197;BME280;55019;49.382;11.358;2024-02-23T06:33:04;94878.94;;;3.64;100.00
68197;BME280;55019;49.382;11.358;2024-02-23T06:35:30;94895.53;;;3.68;100.00
68197;BME280;55019;49.382;11.358;2024-02-23T06:37:56;94885.63;;;3.65;100.00
68197;BME280;55019;49.382;11.358;2024-02-23T06:40:22;94885.31;;;3.84;100.00
68197;BME280;55019;49.382;11.358;2024-02-23T06:42:48;94875.38;;;3.81;100.00
68197;BME280;55019;49.382;11.358;2024-02-23T06:45:14;94878.41;;;3.85;100.00
68197;BME280;55019;49.382;11.358;2024-02-23T06:47:40;94891.69;;;3.88;100.00
68197;BME280;55019;49.382;11.358;2024-02-23T06:50:08;94894.09;;;3.74;100.00
68197;BME280;55019;49.382;11.358;2024-02-23T06:52:34;94880.50;;;3.73;100.00
68197;BME280;55019;49.382;11.358;2024-02-23T06:55:00;94895.81;;;3.81;100.00
68197;BME280;55019;49.382;11.358;2024-02-23T06:57:25;94896.31;;;3.85;100.00
68197;BME280;55019;49.382;11.358;2024-02-23T06:59:52;94897.41;;;3.82;100.00
68197;BME280;55019;49.382;11.358;2024-02-23T07:02:18;94887.69;;;3.86;100.00
68197;BME280;55019;49.382;11.358;2024-02-23T07:04:43;94896.59;;;3.98;100.00
68197;BME280;55019;49.382;11.358;2024-02-23T07:07:09;94894.16;;;4.12;100.00
68197;BME280;55019;49.382;11.358;2024-02-23T07:09:37;94892.72;;;4.18;100.00
68197;BME280;55019;49.382;11.358;2024-02-23T07:12:03;94884.69;;;4.28;100.00
68197;BME280;55019;49.382;11.358;2024-02-23T07:14:29;94891.75;;;4.19;100.00
68197;BME280;55019;49.382;11.358;2024-02-23T07:16:54;94887.09;;;4.22;100.00
68197;BME280;55019;49.382;11.358;2024-02-23T07:19:20;94876.75;;;4.54;100.00
68197;BME280;55019;49.382;11.358;2024-02-23T07:21:46;94865.34;;;4.34;100.00
68197;BME280;55019;49.382;11.358;2024-02-23T07:24:13;94864.66;;;4.70;100.00
68197;BME280;55019;49.382;11.358;2024-02-23T07:26:41;94850.59;;;4.44;100.00
68197;BME280;55019;49.382;11.358;2024-02-23T07:29:08;94857.38;;;4.21;100.00
68197;BME280;55019;49.382;11.358;2024-02-23T07:31:35;94854.16;;;4.27;100.00
68197;BME280;55019;49.382;11.358;2024-02-23T07:34:03;94865.91;;;4.14;100.00
68197;BME280;55019;49.382;11.358;2024-02-23T07:36:29;94877.09;;;4.05;100.00
68197;BME280;55019;49.382;11.358;2024-02-23T07:38:58;94878.84;;;4.04;100.00
68197;BME280;55019;49.382;11.358;2024-02-23T07:41:23;94894.09;;;4.28;100.00
68197;BME280;55019;49.382;11.358;2024-02-23T07:43:49;94869.94;;;3.92;100.00
68197;BME280;55019;49.382;11.358;2024-02-23T07:46:18;94906.59;;;4.23;100.00
68197;BME280;55019;49.382;11.358;2024-02-23T07:48:47;94881.59;;;3.95;100.00
68197;BME280;55019;49.382;11.358;2024-02-23T07:51:13;94905.69;;;4.00;100.00
68197;BME280;55019;49.382;11.358;2024-02-23T07:53:39;94897.38;;;4.06;100.00
68197;BME280;55019;49.382;11.358;2024-02-23T07:56:07;94908.19;;;4.24;100.00
68197;BME280;55019;49.382;11.358;2024-02-23T07:58:33;94904.13;;;4.37;100.00
68197;BME280;55019;49.382;11.358;2024-02-23T08:00:59;94904.63;;;4.41;100.00
68197;BME280;55019;49.382;11.358;2024-02-23T08:03:24;94895.69;;;4.29;100.00
68197;BME280;55019;49.382;11.358;2024-02-23T08:05:51;94912.00;;;4.28;100.00
68197;BME280;55019;49.382;11.358;2024-02-23T08:08:17;94915.38;;;4.28;100.00
68197;BME280;55019;49.382;11.358;2024-02-23T08:10:44;94905.09;;;4.36;100.00
68197;BME280;55019;49.382;11.358;2024-02-23T08:13:10;94913.91;;;4.34;100.00
68197;BME280;55019;49.382;11.358;2024-02-23T08:15:36;94909.00;;;4.24;100.00
68197;BME280;55019;49.382;11.358;2024-02-23T08:18:02;94903.81;;;4.40;100.00
68197;BME280;55019;49.382;11.358;2024-02-23T08:20:28;94908.13;;;4.40;100.00
68197;BME280;55019;49.382;11.358;2024-02-23T08:22:53;94905.97;;;4.59;100.00
68197;BME280;55019;49.382;11.358;2024-02-23T08:25:19;94911.59;;;4.55;100.00
68197;BME280;55019;49.382;11.358;2024-02-23T08:27:45;94911.31;;;4.42;100.00
68197;BME280;55019;49.382;11.358;2024-02-23T08:30:13;94915.09;;;4.54;100.00
68197;BME280;55019;49.382;11.358;2024-02-23T08:32:39;94923.16;;;4.43;100.00
68197;BME280;55019;49.382;11.358;2024-02-23T08:35:05;94921.66;;;4.48;100.00
68197;BME280;55019;49.382;11.358;2024-02-23T08:37:34;94913.97;;;4.56;100.00
68197;BME280;55019;49.382;11.358;2024-02-23T08:40:03;94897.69;;;4.80;100.00
68197;BME280;55019;49.382;11.358;2024-02-23T08:42:29;94918.84;;;4.74;100.00
68197;BME280;55019;49.382;11.358;2024-02-23T08:44:54;94918.44;;;4.93;100.00
68197;BME280;55019;49.382;11.358;2024-02-23T08:47:20;94919.66;;;5.27;100.00
68197;BME280;55019;49.382;11.358;2024-02-23T08:49:46;94934.78;;;5.14;100.00
68197;BME280;55019;49.382;11.358;2024-02-23T08:52:12;94947.59;;;5.14;100.00
68197;BME280;55019;49.382;11.358;2024-02-23T08:54:38;94938.53;;;5.04;100.00
68197;BME280;55019;49.382;11.358;2024-02-23T08:57:05;94917.56;;;5.00;100.00
68197;BME280;55019;49.382;11.358;2024-02-23T08:59:31;94936.25;;;5.09;100.00
68197;BME280;55019;49.382;11.358;2024-02-23T09:01:56;94933.78;;;4.93;100.00
68197;BME280;55019;49.382;11.358;2024-02-23T09:04:22;94940.22;;;4.81;100.00
68197;BME280;55019;49.382;11.358;2024-02-23T09:06:49;94938.47;;;4.81;100.00
68197;BME280;55019;49.382;11.358;2024-02-23T09:09:16;94947.22;;;4.95;100.00
68197;BME280;55019;49.382;11.358;2024-02-23T09:11:42;94912.41;;;4.78;100.00
68197;BME280;55019;49.382;11.358;2024-02-23T09:14:08;94932.94;;;5.00;100.00
68197;BME280;55019;49.382;11.358;2024-02-23T09:16:33;94929.97;;;5.19;100.00
68197;BME280;55019;49.382;11.358;2024-02-23T09:18:59;94933.81;;;5.15;100.00
68197;BME280;55019;49.382;11.358;2024-02-23T09:21:25;94953.16;;;5.18;100.00
68197;BME280;55019;49.382;11.358;2024-02-23T09:23:51;94968.09;;;5.06;100.00
68197;BME280;55019;49.382;11.358;2024-02-23T09:26:17;94972.53;;;4.82;100.00
68197;BME280;55019;49.382;11.358;2024-02-23T09:28:43;94976.69;;;4.83;100.00
68197;BME280;55019;49.382;11.358;2024-02-23T09:31:11;94969.81;;;4.83;100.00
68197;BME280;55019;49.382;11.358;2024-02-23T09:33:36;94971.91;;;4.80;100.00
68197;BME280;55019;49.382;11.358;2024-02-23T09:36:02;94968.19;;;4.90;100.00
68197;BME280;55019;49.382;11.358;2024-02-23T09:38:28;94957.59;;;4.93;100.00
68197;BME280;55019;49.382;11.358;2024-02-23T09:40:54;94958.75;;;4.91;100.00
68197;BME280;55019;49.382;11.358;2024-02-23T09:43:21;94974.44;;;4.88;100.00
68197;BME280;55019;49.382;11.358;2024-02-23T09:45:51;94974.78;;;4.85;100.00
68197;BME280;55019;49.382;11.358;2024-02-23T09:48:18;94975.03;;;4.98;100.00
68197;BME280;55019;49.382;11.358;2024-02-23T09:50:44;94979.84;;;4.93;100.00
68197;BME280;55019;49.382;11.358;2024-02-23T09:53:13;94983.69;;;4.97;100.00
68197;BME280;55019;49.382;11.358;2024-02-23T09:55:39;94992.50;;;4.86;100.00
68197;BME280;55019;49.382;11.358;2024-02-23T09:58:06;94995.84;;;4.95;100.00
68197;BME280;55019;49.382;11.358;2024-02-23T10:00:36;95001.00;;;5.17;100.00
68197;BME280;55019;49.382;11.358;2024-02-23T10:03:04;95001.47;;;5.21;100.00
68197;BME280;55019;49.382;11.358;2024-02-23T10:05:30;94998.59;;;5.16;100.00
68197;BME280;55019;49.382;11.358;2024-02-23T10:07:58;94991.50;;;5.26;100.00
68197;BME280;55019;49.382;11.358;2024-02-23T10:10:33;94993.72;;;5.29;100.00
68197;BME280;55019;49.382;11.358;2024-02-23T10:13:02;94993.72;;;5.29;100.00
68197;BME280;55019;49.382;11.358;2024-02-23T10:15:29;94998.47;;;5.17;100.00
68197;BME280;55019;49.382;11.358;2024-02-23T10:17:56;95000.88;;;5.11;100.00
68197;BME280;55019;49.382;11.358;2024-02-23T10:20:22;94997.72;;;5.01;100.00
68197;BME280;55019;49.382;11.358;2024-02-23T10:22:48;94992.75;;;4.99;100.00
68197;BME280;55019;49.382;11.358;2024-02-23T10:25:14;94990.00;;;5.09;100.00
68197;BME280;55019;49.382;11.358;2024-02-23T10:27:41;94978.38;;;4.98;100.00
68197;BME280;55019;49.382;11.358;2024-02-23T10:30:08;94969.25;;;5.04;100.00
68197;BME280;55019;49.382;11.358;2024-02-23T10:32:38;94995.41;;;5.14;100.00
68197;BME280;55019;49.382;11.358;2024-02-23T10:35:10;94992.91;;;5.06;100.00
68197;BME280;55019;49.382;11.358;2024-02-23T10:37:36;95003.38;;;5.19;100.00
68197;BME280;55019;49.382;11.358;2024-02-23T10:40:03;94996.09;;;5.08;100.00
68197;BME280;55019;49.382;11.358;2024-02-23T10:42:35;94994.03;;;5.03;100.00
68197;BME280;55019;49.382;11.358;2024-02-23T10:45:02;94995.09;;;5.17;100.00
68197;BME280;55019;49.382;11.358;2024-02-23T10:47:32;94992.38;;;5.18;100.00
68197;BME280;55019;49.382;11.358;2024-02-23T10:50:02;94988.03;;;5.19;100.00
68197;BME280;55019;49.382;11.358;2024-02-23T10:52:29;94992.47;;;5.25;100.00
68197;BME280;55019;49.382;11.358;2024-02-23T10:54:56;94994.34;;;5.31;100.00
68197;BME280;55019;49.382;11.358;2024-02-23T10:57:23;94990.81;;;5.40;100.00
68197;BME280;55019;49.382;11.358;2024-02-23T10:59:49;94988.78;;;5.27;100.00
68197;BME280;55019;49.382;11.358;2024-02-23T11:02:19;94984.13;;;5.31;100.00
68197;BME280;55019;49.382;11.358;2024-02-23T11:04:49;94987.22;;;5.49;100.00
68197;BME280;55019;49.382;11.358;2024-02-23T11:07:19;94994.34;;;5.39;100.00
68197;BME280;55019;49.382;11.358;2024-02-23T11:09:58;94991.16;;;5.37;100.00
68197;BME280;55019;49.382;11.358;2024-02-23T11:12:25;94995.38;;;5.22;100.00
68197;BME280;55019;49.382;11.358;2024-02-23T11:14:51;94984.16;;;5.23;100.00
68197;BME280;55019;49.382;11.358;2024-02-23T11:17:21;94974.41;;;5.26;100.00
68197;BME280;55019;49.382;11.358;2024-02-23T11:19:50;94968.50;;;5.18;100.00
68197;BME280;55019;49.382;11.358;2024-02-23T11:22:26;94970.69;;;5.29;100.00
68197;BME280;55019;49.382;11.358;2024-02-23T11:24:53;94974.50;;;5.55;100.00
68197;BME280;55019;49.382;11.358;2024-02-23T11:27:19;94975.66;;;5.53;100.00
68197;BME280;55019;49.382;11.358;2024-02-23T11:29:46;94966.88;;;5.69;100.00
68197;BME280;55019;49.382;11.358;2024-02-23T11:32:18;94963.06;;;5.65;100.00
68197;BME280;55019;49.382;11.358;2024-02-23T11:35:10;94973.94;;;5.67;100.00
68197;BME280;55019;49.382;11.358;2024-02-23T11:40:18;94959.81;;;5.49;100.00
68197;BME280;55019;49.382;11.358;2024-02-23T11:42:46;94970.97;;;5.56;100.00
68197;BME280;55019;49.382;11.358;2024-02-23T11:45:13;94976.91;;;5.57;100.00
68197;BME280;55019;49.382;11.358;2024-02-23T11:47:39;94969.50;;;5.62;100.00
68197;BME280;55019;49.382;11.358;2024-02-23T11:50:11;94976.56;;;5.60;100.00
68197;BME280;55019;49.382;11.358;2024-02-23T11:52:37;94966.50;;;5.80;100.00
68197;BME280;55019;49.382;11.358;2024-02-23T11:55:04;94972.00;;;5.69;100.00
68197;BME280;55019;49.382;11.358;2024-02-23T11:57:32;94960.97;;;5.69;100.00
68197;BME280;55019;49.382;11.358;2024-02-23T11:59:58;94962.56;;;5.70;100.00
68197;BME280;55019;49.382;11.358;2024-02-23T12:02:24;94956.53;;;5.63;100.00
68197;BME280;55019;49.382;11.358;2024-02-23T12:04:50;94967.22;;;5.66;100.00
68197;BME280;55019;49.382;11.358;2024-02-23T12:07:16;94954.47;;;5.59;100.00
68197;BME280;55019;49.382;11.358;2024-02-23T12:09:42;94959.94;;;5.56;100.00
68197;BME280;55019;49.382;11.358;2024-02-23T12:12:09;94958.00;;;5.58;100.00
68197;BME280;55019;49.382;11.358;2024-02-23T12:14:39;94958.13;;;5.42;100.00
68197;BME280;55019;49.382;11.358;2024-02-23T12:17:07;94955.50;;;5.50;100.00
68197;BME280;55019;49.382;11.358;2024-02-23T12:19:40;94956.06;;;5.60;100.00
68197;BME280;55019;49.382;11.358;2024-02-23T12:22:07;94951.44;;;5.77;100.00
68197;BME280;55019;49.382;11.358;2024-02-23T12:24:34;94942.50;;;5.73;100.00
68197;BME280;55019;49.382;11.358;2024-02-23T12:27:00;94951.50;;;5.69;100.00
68197;BME280;55019;49.382;11.358;2024-02-23T12:29:25;94938.91;;;5.60;100.00
68197;BME280;55019;49.382;11.358;2024-02-23T12:32:05;94940.34;;;5.63;100.00
68197;BME280;55019;49.382;11.358;2024-02-23T12:34:31;94939.47;;;5.56;100.00
68197;BME280;55019;49.382;11.358;2024-02-23T12:36:57;94932.19;;;5.45;100.00
68197;BME280;55019;49.382;11.358;2024-02-23T12:39:24;94940.94;;;5.50;100.00
68197;BME280;55019;49.382;11.358;2024-02-23T12:41:50;94930.81;;;5.57;100.00
68197;BME280;55019;49.382;11.358;2024-02-23T12:44:16;94929.47;;;5.61;100.00
68197;BME280;55019;49.382;11.358;2024-02-23T12:46:42;94925.34;;;5.60;100.00
68197;BME280;55019;49.382;11.358;2024-02-23T12:49:08;94926.50;;;5.71;100.00